Time;durP1;ratioP1;P1;durP2;ratioP2;P2;SDS_P1;SDS_P2;PMS_P1;PMS_P2;Temp;Humidity;BMP_temperature;BMP_pressure;BME280_temperature;BME280_humidity;BME280_pressure;Samples;Min_cycle;Max_cycle;Signal;HPM_P1;HPM_P2
2021/05/12 03:39:22;;;;;;;4.92;1.95;;;;;;;13.55;100.00;98866.71;1774212;79;21985;-69
2021/05/12 03:41:52;;;;;;;4.50;1.80;;;;;;;13.49;100.00;98870.38;1698874;82;21425;-66
2021/05/12 03:44:20;;;;;;;7.95;1.82;;;;;;;13.51;100.00;98883.14;1704360;83;21247;-68
2021/05/12 03:46:47;;;;;;;12.75;2.35;;;;;;;13.53;100.00;98881.77;1676660;83;21013;-69
2021/05/12 03:49:14;;;;;;;5.50;1.98;;;;;;;13.53;100.00;98885.75;1676654;82;21032;-68
2021/05/12 03:51:41;;;;;;;7.72;1.77;;;;;;;13.51;100.00;98884.46;1676597;83;20873;-66
2021/05/12 03:54:10;;;;;;;10.63;1.95;;;;;;;13.49;100.00;98890.70;1720239;82;21024;-69
2021/05/12 03:56:40;;;;;;;3.45;1.67;;;;;;;13.48;100.00;98887.17;1693167;82;22422;-67
2021/05/12 03:59:07;;;;;;;4.55;1.77;;;;;;;13.50;100.00;98890.67;1688923;83;20980;-66
2021/05/12 04:01:34;;;;;;;3.22;1.70;;;;;;;13.55;100.00;98889.23;1689369;83;21063;-67
2021/05/12 04:04:05;;;;;;;2.00;1.60;;;;;;;13.63;100.00;98886.41;1689527;83;20937;-66
2021/05/12 04:06:31;;;;;;;2.40;1.62;;;;;;;13.68;100.00;98892.48;1689440;83;21562;-67
2021/05/12 04:08:58;;;;;;;5.03;1.50;;;;;;;13.71;100.00;98891.09;1689478;83;23435;-66
2021/05/12 04:11:25;;;;;;;2.37;1.50;;;;;;;13.75;100.00;98888.37;1689384;83;21112;-66
2021/05/12 04:13:52;;;;;;;2.47;1.60;;;;;;;13.80;100.00;98884.28;1689932;83;20977;-66
2021/05/12 04:16:19;;;;;;;36.80;3.52;;;;;;;13.81;100.00;98885.57;1690650;83;21001;-67
2021/05/12 04:18:46;;;;;;;2.75;1.42;;;;;;;13.79;100.00;98893.14;1690713;83;21068;-67
2021/05/12 04:21:13;;;;;;;1.70;1.60;;;;;;;13.79;100.00;98890.49;1690678;83;21007;-67
2021/05/12 04:23:41;;;;;;;9.75;2.05;;;;;;;13.84;100.00;98899.20;1690687;83;21271;-67
2021/05/12 04:26:08;;;;;;;7.45;1.75;;;;;;;13.89;100.00;98896.45;1690818;83;21005;-67
2021/05/12 04:28:35;;;;;;;2.05;1.60;;;;;;;13.95;100.00;98902.94;1690842;83;21036;-68
2021/05/12 04:31:02;;;;;;;3.95;1.75;;;;;;;13.91;100.00;98896.83;1696964;82;20937;-68
2021/05/12 04:33:29;;;;;;;3.55;1.70;;;;;;;13.86;100.00;98900.92;1680683;84;21017;-68
2021/05/12 04:35:56;;;;;;;2.40;1.40;;;;;;;13.82;100.00;98901.02;1674391;84;21155;-67
2021/05/12 04:38:23;;;;;;;4.22;1.50;;;;;;;13.79;100.00;98903.75;1698314;83;20945;-67
2021/05/12 04:40:50;;;;;;;4.17;2.02;;;;;;;13.78;100.00;98903.33;1664349;84;21057;-68
2021/05/12 04:43:18;;;;;;;4.45;1.70;;;;;;;13.80;100.00;98898.86;1664409;84;21024;-68
2021/05/12 04:45:45;;;;;;;110.90;5.50;;;;;;;13.84;100.00;98898.75;1664362;83;23442;-68
2021/05/12 04:48:12;;;;;;;29.80;2.55;;;;;;;13.93;100.00;98891.49;1664243;84;20937;-67
2021/05/12 04:50:39;;;;;;;3.95;1.40;;;;;;;14.01;100.00;98897.48;1663798;83;20957;-68
2021/05/12 04:53:07;;;;;;;3.40;1.92;;;;;;;14.09;100.00;98900.36;1663938;83;21479;-68
2021/05/12 04:55:33;;;;;;;1.80;1.67;;;;;;;14.18;100.00;98886.00;1664110;83;21012;-68
2021/05/12 04:58:01;;;;;;;2.15;1.62;;;;;;;14.21;100.00;98887.74;1663856;83;22716;-68
2021/05/12 05:00:28;;;;;;;2.98;1.75;;;;;;;14.25;100.00;98882.32;1663765;84;21021;-68
2021/05/12 05:02:55;;;;;;;115.35;7.33;;;;;;;14.34;100.00;98883.41;1664158;84;21021;-67
2021/05/12 05:05:24;;;;;;;5.75;1.70;;;;;;;14.47;100.00;98890.18;1663970;83;21017;-67
2021/05/12 05:07:51;;;;;;;6.50;1.70;;;;;;;14.58;100.00;98894.33;1663703;84;21096;-67
2021/05/12 05:10:19;;;;;;;5.20;1.67;;;;;;;14.69;100.00;98892.30;1663816;83;20993;-66
2021/05/12 05:12:46;;;;;;;2.95;1.70;;;;;;;14.76;99.80;98896.53;1663837;84;21025;-67
2021/05/12 05:15:14;;;;;;;1.75;1.60;;;;;;;14.85;99.71;98900.72;1663843;84;20949;-67
2021/05/12 05:17:42;;;;;;;7.20;2.00;;;;;;;14.93;99.29;98900.92;1663744;83;21017;-67
2021/05/12 05:20:11;;;;;;;4.12;1.82;;;;;;;14.99;97.96;98909.17;1663939;83;20934;-67
2021/05/12 05:22:38;;;;;;;1.87;1.60;;;;;;;15.00;97.36;98906.93;1664688;84;21079;-67
2021/05/12 05:25:07;;;;;;;3.12;1.72;;;;;;;15.09;96.99;98910.20;1663644;83;20978;-67
2021/05/12 05:27:34;;;;;;;2.67;1.30;;;;;;;15.22;96.33;98917.40;1663807;84;20981;-67
2021/05/12 05:30:02;;;;;;;4.97;1.57;;;;;;;15.31;94.23;98921.58;1663881;84;20957;-67
2021/05/12 05:32:47;;;;;;;3.87;1.30;;;;;;;15.38;93.15;98920.48;1663735;83;21028;-67
2021/05/12 05:35:32;;;;;;;4.80;1.20;;;;;;;15.49;91.91;98909.08;1667680;84;23592;-68
2021/05/12 05:38:19;;;;;;;2.47;1.10;;;;;;;15.55;90.53;98912.88;1690926;82;20946;-66
2021/05/12 05:41:04;;;;;;;0.93;0.90;;;;;;;15.58;89.14;98914.61;1716677;82;20862;-67
2021/05/12 05:43:50;;;;;;;11.12;1.90;;;;;;;15.61;87.75;98915.42;1716200;82;20980;-66
2021/05/12 05:46:35;;;;;;;1.10;1.00;;;;;;;15.63;87.04;98912.25;1716427;81;20898;-67
2021/05/12 05:49:21;;;;;;;1.20;1.10;;;;;;;15.68;85.87;98907.66;1716300;82;21953;-66
2021/05/12 05:52:07;;;;;;;10.35;1.57;;;;;;;15.72;85.61;98909.31;1716510;82;20898;-66
2021/05/12 05:54:53;;;;;;;1.10;1.00;;;;;;;15.81;85.64;98893.98;1716364;82;21364;-68
2021/05/12 05:57:39;;;;;;;1.75;1.10;;;;;;;15.90;84.86;98900.34;1716406;82;21155;-68
2021/05/12 06:00:25;;;;;;;69.95;5.03;;;;;;;15.92;83.69;98897.18;1716311;82;20997;-66
2021/05/12 06:02:52;;;;;;;2.52;1.40;;;;;;;15.89;83.29;98894.16;1716218;82;20966;-66
2021/05/12 06:05:39;;;;;;;1.90;1.25;;;;;;;15.90;84.23;98899.89;1716165;82;20925;-67
2021/05/12 06:08:24;;;;;;;2.72;1.00;;;;;;;15.96;84.53;98893.50;1716308;82;20950;-67
2021/05/12 06:11:11;;;;;;;31.80;2.55;;;;;;;15.97;84.08;98892.12;1716231;82;21178;-67
2021/05/12 06:13:57;;;;;;;50.10;3.00;;;;;;;16.05;84.38;98900.73;1741201;80;20989;-66
2021/05/12 06:16:43;;;;;;;1.52;0.90;;;;;;;16.19;84.34;98897.66;1740991;81;23074;-66
2021/05/12 06:19:29;;;;;;;1.07;0.98;;;;;;;16.28;82.88;98898.67;1716199;82;21127;-67
2021/05/12 06:22:15;;;;;;;63.50;3.35;;;;;;;16.32;80.44;98885.67;1716239;82;21483;-66
2021/05/12 06:25:00;;;;;;;2.20;1.20;;;;;;;16.37;80.28;98878.41;1740824;81;20997;-67
2021/05/12 06:27:50;;;;;;;1.30;0.93;;;;;;;16.51;80.37;98873.06;1745734;82;21447;-68
2021/05/12 06:30:34;;;;;;;1.17;1.07;;;;;;;16.64;80.68;98868.62;1716213;82;20962;-67
2021/05/12 06:33:19;;;;;;;3.55;1.40;;;;;;;16.77;78.97;98877.55;1716195;82;21305;-67
2021/05/12 06:36:06;;;;;;;14.53;2.30;;;;;;;16.85;77.20;98883.47;1716295;82;20930;-67
2021/05/12 06:38:52;;;;;;;23.83;4.22;;;;;;;16.91;77.29;98873.46;1722136;81;20937;-66
2021/05/12 06:41:20;;;;;;;32.17;3.70;;;;;;;16.92;75.49;98870.33;1729125;81;20905;-66
2021/05/12 06:43:49;;;;;;;4.53;1.47;;;;;;;16.93;74.56;98861.41;1729187;81;21122;-66
2021/05/12 06:46:18;;;;;;;6.90;1.77;;;;;;;16.99;74.30;98869.19;1729037;81;20933;-67
2021/05/12 06:48:45;;;;;;;13.45;2.70;;;;;;;17.03;73.42;98860.19;1729145;81;20973;-67
2021/05/12 06:51:13;;;;;;;5.85;1.65;;;;;;;17.10;72.70;98866.16;1729210;81;21724;-68
2021/05/12 06:53:41;;;;;;;2.30;1.15;;;;;;;17.25;71.75;98865.13;1729157;81;20913;-66
2021/05/12 06:56:10;;;;;;;3.85;1.40;;;;;;;17.25;71.75;98865.13;1728580;81;21396;-66
2021/05/12 06:58:41;;;;;;;17.80;1.60;;;;;;;17.28;71.67;98865.47;1736354;81;20929;-68
2021/05/12 07:01:10;;;;;;;4.67;1.60;;;;;;;17.32;70.45;98860.42;1700246;83;20909;-67
2021/05/12 07:03:38;;;;;;;1.42;1.22;;;;;;;17.33;69.11;98860.83;1700103;83;20984;-67
2021/05/12 07:06:05;;;;;;;4.15;1.30;;;;;;;17.37;71.24;98864.25;1727073;81;21558;-66
2021/05/12 07:08:34;;;;;;;1.40;1.20;;;;;;;17.41;71.01;98866.73;1700134;83;21095;-68
2021/05/12 07:11:00;;;;;;;2.55;1.12;;;;;;;17.42;69.73;98856.48;1712796;81;21590;-66
2021/05/12 07:13:28;;;;;;;3.83;1.52;;;;;;;17.51;71.17;98858.83;1729137;81;20969;-65
2021/05/12 07:15:55;;;;;;;3.90;1.60;;;;;;;17.64;72.27;98856.55;1729181;81;20989;-66
2021/05/12 07:18:22;;;;;;;6.95;1.50;;;;;;;17.75;72.87;98855.69;1729315;81;20870;-66
2021/05/12 07:20:49;;;;;;;4.20;0.80;;;;;;;17.82;71.12;98855.84;1729135;80;21032;-66
2021/05/12 07:23:22;;;;;;;1.50;0.80;;;;;;;17.88;69.57;98863.60;1729167;81;20921;-65
2021/05/12 07:25:49;;;;;;;0.93;0.82;;;;;;;17.93;67.25;98858.95;1729122;81;20917;-66
2021/05/12 07:28:16;;;;;;;2.45;0.95;;;;;;;18.00;66.33;98859.59;1729273;80;20941;-67
2021/05/12 07:30:44;;;;;;;3.12;0.90;;;;;;;18.08;66.45;98856.61;1729305;81;20913;-67
2021/05/12 07:33:11;;;;;;;3.37;1.00;;;;;;;18.11;65.32;98854.69;1724779;81;23208;-66
2021/05/12 07:35:38;;;;;;;3.17;1.10;;;;;;;18.13;64.33;98854.16;1728979;81;20985;-67
2021/05/12 07:38:05;;;;;;;0.88;0.88;;;;;;;18.13;64.66;98859.50;1719907;80;21024;-67
2021/05/12 07:40:36;;;;;;;8.38;1.62;;;;;;;18.13;63.94;98858.63;1749147;80;20929;-67
2021/05/12 07:43:08;;;;;;;14.80;3.08;;;;;;;18.10;63.21;98852.95;1721683;82;20957;-67
2021/05/12 07:45:36;;;;;;;2.35;0.95;;;;;;;18.17;63.68;98856.23;1749383;82;21211;-66
2021/05/12 07:48:05;;;;;;;1.30;0.70;;;;;;;18.23;65.14;98851.50;1721587;82;20909;-66
2021/05/12 07:50:32;;;;;;;2.30;0.68;;;;;;;18.36;66.82;98841.64;1721506;82;20917;-67
2021/05/12 07:53:01;;;;;;;1.57;0.82;;;;;;;18.48;66.94;98846.02;1721711;82;20906;-65
2021/05/12 07:55:29;;;;;;;1.45;0.80;;;;;;;18.54;64.06;98847.56;1721704;82;20981;-67
2021/05/12 07:57:57;;;;;;;16.40;1.35;;;;;;;18.55;63.15;98845.29;1721725;82;21151;-67
2021/05/12 08:00:26;;;;;;;1.30;0.70;;;;;;;18.58;62.40;98842.48;1721652;82;20970;-67
2021/05/12 08:02:53;;;;;;;1.02;0.70;;;;;;;18.66;60.88;98846.19;1748997;80;21125;-66
2021/05/12 08:05:20;;;;;;;0.90;0.65;;;;;;;18.72;60.26;98841.45;1721509;80;20934;-66
2021/05/12 08:07:48;;;;;;;15.72;1.00;;;;;;;18.77;59.89;98835.43;1721577;82;20901;-66
2021/05/12 08:10:15;;;;;;;0.88;0.60;;;;;;;18.80;59.79;98835.30;1721625;82;22701;-66
2021/05/12 08:12:43;;;;;;;61.23;7.78;;;;;;;18.86;60.17;98842.17;1721480;82;20993;-66
2021/05/12 08:15:11;;;;;;;35.08;4.55;;;;;;;18.95;59.35;98837.78;1721617;82;20929;-67
2021/05/12 08:17:39;;;;;;;7.17;1.32;;;;;;;18.99;59.56;98838.05;1721622;82;21514;-66
2021/05/12 08:20:07;;;;;;;0.88;0.60;;;;;;;19.07;59.64;98841.23;1719167;82;20950;-66
2021/05/12 08:22:34;;;;;;;0.75;0.60;;;;;;;19.13;59.52;98841.42;1736306;82;21882;-67
2021/05/12 08:25:01;;;;;;;1.82;0.50;;;;;;;19.15;57.29;98849.77;1721757;80;20862;-67
2021/05/12 08:27:30;;;;;;;2.47;0.50;;;;;;;19.09;56.27;98850.52;1721871;82;20961;-67
2021/05/12 08:30:00;;;;;;;11.83;1.05;;;;;;;19.02;55.28;98853.08;1721923;82;20992;-67
2021/05/12 08:32:26;;;;;;;2.25;0.70;;;;;;;18.97;55.25;98845.27;1721716;82;21013;-66
2021/05/12 08:34:58;;;;;;;2.67;0.60;;;;;;;18.95;55.27;98846.27;1721804;82;21868;-67
2021/05/12 08:37:26;;;;;;;1.70;0.40;;;;;;;18.94;55.40;98839.19;1721823;82;20992;-66
2021/05/12 08:39:53;;;;;;;4.95;0.85;;;;;;;18.93;55.13;98848.14;1716607;82;21515;-69
2021/05/12 08:42:20;;;;;;;12.78;1.47;;;;;;;18.94;54.88;98841.39;1743654;81;20958;-67
2021/05/12 08:44:48;;;;;;;0.70;0.42;;;;;;;18.85;54.67;98846.65;1714230;82;21029;-66
2021/05/12 08:47:19;;;;;;;4.87;0.70;;;;;;;18.78;54.45;98841.17;1714153;82;21094;-66
2021/05/12 08:49:46;;;;;;;17.60;2.70;;;;;;;18.71;54.55;98839.71;1713216;82;21004;-68
2021/05/12 08:52:13;;;;;;;8.68;1.22;;;;;;;18.62;54.59;98837.44;1700395;82;20901;-66
2021/05/12 08:54:41;;;;;;;3.80;0.90;;;;;;;18.53;54.00;98849.36;1743578;81;20937;-66
2021/05/12 08:57:08;;;;;;;3.22;0.60;;;;;;;18.41;53.83;98845.85;1690674;82;20949;-66
2021/05/12 08:59:35;;;;;;;2.47;0.33;;;;;;;18.31;54.04;98840.50;1743496;82;20991;-66
2021/05/12 09:02:04;;;;;;;9.05;0.98;;;;;;;18.22;54.47;98839.09;1743471;81;20906;-66
2021/05/12 09:04:33;;;;;;;9.55;1.25;;;;;;;18.11;55.20;98841.34;1714265;82;21504;-67
2021/05/12 09:07:00;;;;;;;8.80;1.35;;;;;;;18.05;54.76;98851.41;1743496;82;20926;-66
2021/05/12 09:09:28;;;;;;;3.02;0.60;;;;;;;17.97;54.82;98848.15;1743600;81;20913;-67
2021/05/12 09:11:57;;;;;;;1.17;0.53;;;;;;;17.91;55.07;98851.47;1743661;82;22638;-66
2021/05/12 09:14:32;;;;;;;7.85;1.50;;;;;;;17.81;54.67;98847.44;1734524;81;20949;-66
2021/05/12 09:16:59;;;;;;;5.97;1.47;;;;;;;17.76;55.23;98849.42;1714270;82;21440;-66
2021/05/12 09:19:27;;;;;;;4.25;0.88;;;;;;;17.68;55.23;98842.19;1743551;82;21042;-66
2021/05/12 09:22:00;;;;;;;3.52;0.70;;;;;;;17.70;55.57;98843.46;1743437;82;20929;-66
2021/05/12 09:24:38;;;;;;;9.28;1.30;;;;;;;17.72;55.96;98842.94;1713187;82;20870;-67
2021/05/12 09:27:19;;;;;;;36.05;4.42;;;;;;;17.68;55.30;98840.86;1743486;81;20942;-67
2021/05/12 09:29:45;;;;;;;13.32;1.60;;;;;;;17.67;55.98;98843.58;1714184;81;20953;-67
2021/05/12 09:32:15;;;;;;;1.05;0.53;;;;;;;17.70;57.40;98842.13;1743513;82;20949;-67
2021/05/12 09:35:03;;;;;;;1.75;0.33;;;;;;;17.70;56.49;98843.46;1743493;81;20901;-67
2021/05/12 09:37:40;;;;;;;1.50;0.30;;;;;;;17.66;57.04;98846.68;1714490;82;21743;-67
2021/05/12 09:40:16;;;;;;;2.12;0.50;;;;;;;17.68;57.01;98846.66;1737791;81;21009;-67
2021/05/12 09:42:45;;;;;;;1.22;0.40;;;;;;;17.63;56.89;98853.47;1713846;82;20906;-67
2021/05/12 09:45:24;;;;;;;12.63;1.95;;;;;;;17.56;57.57;98853.31;1735492;81;20938;-67
2021/05/12 09:48:01;;;;;;;2.05;0.60;;;;;;;17.45;57.80;98850.16;1714522;82;21037;-67
2021/05/12 09:50:37;;;;;;;5.47;0.70;;;;;;;17.38;57.68;98854.86;1714751;82;21793;-67
2021/05/12 09:53:12;;;;;;;1.17;0.50;;;;;;;17.30;57.91;98857.82;1706162;82;21011;-67
2021/05/12 09:55:48;;;;;;;1.17;0.40;;;;;;;17.23;58.81;98860.77;1685502;82;20937;-67
2021/05/12 09:58:23;;;;;;;0.72;0.40;;;;;;;17.16;59.13;98862.80;1685903;84;20980;-66
2021/05/12 10:00:55;;;;;;;0.82;0.40;;;;;;;17.10;59.73;98864.36;1685986;84;20909;-66
2021/05/12 10:03:25;;;;;;;2.52;0.50;;;;;;;17.04;61.00;98866.39;1686056;84;21591;-68
2021/05/12 10:05:58;;;;;;;1.85;0.40;;;;;;;16.93;62.76;98864.08;1685821;84;21001;-67
2021/05/12 10:08:31;;;;;;;0.50;0.40;;;;;;;16.90;62.25;98865.06;1685894;84;21005;-67
2021/05/12 10:11:05;;;;;;;2.10;0.57;;;;;;;16.91;62.57;98856.61;1685720;84;20946;-67
2021/05/12 10:13:31;;;;;;;0.60;0.47;;;;;;;16.91;62.64;98865.47;1685529;84;20911;-67
2021/05/12 10:15:59;;;;;;;1.75;0.30;;;;;;;16.93;62.92;98864.95;1686165;84;20965;-67
2021/05/12 10:18:26;;;;;;;4.37;0.70;;;;;;;16.96;62.82;98855.98;1685770;84;21120;-67
2021/05/12 10:20:57;;;;;;;2.15;0.70;;;;;;;17.06;63.58;98860.53;1685863;84;21025;-67
2021/05/12 10:23:22;;;;;;;2.12;0.50;;;;;;;17.06;63.58;98860.53;1694108;82;21014;-66
2021/05/12 10:25:50;;;;;;;1.62;0.42;;;;;;;17.15;64.57;98848.20;1693230;83;20925;-65
2021/05/12 10:28:17;;;;;;;0.65;0.30;;;;;;;17.22;63.97;98854.58;1685809;84;21785;-66
2021/05/12 10:30:49;;;;;;;0.57;0.40;;;;;;;17.29;62.33;98844.08;1685957;84;21127;-66
2021/05/12 10:33:17;;;;;;;4.47;0.50;;;;;;;17.29;62.33;98844.08;1685429;84;20982;-66
2021/05/12 10:35:44;;;;;;;0.93;0.40;;;;;;;17.32;63.19;98851.09;1640893;84;21084;-66
2021/05/12 10:38:31;;;;;;;5.45;0.70;;;;;;;17.32;63.20;98849.76;1685869;84;20926;-66
2021/05/12 10:40:59;;;;;;;0.65;0.40;;;;;;;17.36;63.62;98844.72;1666843;84;21045;-66
2021/05/12 10:43:40;;;;;;;5.60;0.60;;;;;;;17.48;62.12;98838.04;1685785;84;21031;-66
2021/05/12 10:48:50;;;;;;;3.12;0.62;;;;;;;17.55;62.98;98844.91;1685813;84;20941;-66
2021/05/12 10:51:31;;;;;;;2.33;0.50;;;;;;;17.63;62.21;98836.13;1685746;84;20978;-66
2021/05/12 10:53:58;;;;;;;1.02;0.40;;;;;;;17.67;61.12;98840.45;1708782;82;21322;-67
2021/05/12 10:56:41;;;;;;;1.25;0.42;;;;;;;17.75;60.06;98833.47;1714473;82;21575;-67
2021/05/12 10:59:11;;;;;;;0.80;0.40;;;;;;;17.79;59.14;98831.09;1714336;82;20930;-66
2021/05/12 11:01:48;;;;;;;0.57;0.40;;;;;;;17.90;57.61;98840.39;1739709;81;21695;-66
2021/05/12 11:04:18;;;;;;;1.95;0.40;;;;;;;17.90;56.91;98832.85;1714495;82;20970;-66
2021/05/12 11:06:54;;;;;;;2.33;0.40;;;;;;;17.93;56.18;98834.06;1735429;81;21072;-66
2021/05/12 11:09:24;;;;;;;2.58;0.50;;;;;;;17.98;55.79;98827.23;1739171;82;20914;-67
2021/05/12 11:11:59;;;;;;;0.68;0.53;;;;;;;18.04;54.56;98828.31;1711092;82;20890;-67
2021/05/12 11:14:34;;;;;;;0.85;0.40;;;;;;;18.03;53.17;98829.25;1706134;81;21578;-66
2021/05/12 11:17:12;;;;;;;1.47;0.40;;;;;;;18.03;52.64;98831.45;1709719;83;20974;-67
2021/05/12 11:19:58;;;;;;;1.22;0.50;;;;;;;17.98;52.76;98830.77;1685454;82;21023;-67
2021/05/12 11:25:19;;;;;;;15.03;2.15;;;;;;;17.89;53.28;98829.78;1685803;84;20922;-66
2021/05/12 11:33:38;;;;;;;15.50;1.00;;;;;;;17.78;54.46;98826.68;1739223;81;21066;-66
2021/05/12 11:38:37;;;;;;;31.50;1.90;;;;;;;17.68;54.34;98811.98;1714861;82;21618;-66
2021/05/12 11:41:10;;;;;;;5.37;0.60;;;;;;;17.66;54.19;98822.67;1752061;80;21038;-67
2021/05/12 11:43:56;;;;;;;;;;;;;;;17.60;54.29;98818.92;1731850;81;20917;-67
2021/05/12 11:46:33;;;;;;;0.60;0.60;;;;;;;17.54;54.00;98815.16;1729070;81;20919;-67
2021/05/12 11:49:14;;;;;;;0.85;0.78;;;;;;;17.53;54.48;98818.77;1744897;80;20917;-67
2021/05/12 11:51:46;;;;;;;2.05;0.68;;;;;;;17.46;53.78;98811.90;1703287;83;20924;-66
2021/05/12 11:54:20;;;;;;;0.80;0.78;;;;;;;17.41;53.21;98829.41;1699865;83;21228;-68
2021/05/12 11:56:56;;;;;;;1.37;0.82;;;;;;;17.36;52.94;98823.39;1699909;83;20969;-67
2021/05/12 11:59:27;;;;;;;0.82;0.75;;;;;;;17.31;52.38;98823.56;1700063;83;20889;-67
2021/05/12 12:02:06;;;;;;;2.05;0.85;;;;;;;17.26;52.23;98820.67;1700200;83;20881;-67
2021/05/12 12:07:04;;;;;;;2.50;1.20;;;;;;;17.24;53.20;98814.53;1718634;82;20893;-66
2021/05/12 12:09:31;;;;;;;14.47;2.02;;;;;;;17.18;53.62;98816.97;1722725;81;20913;-67
2021/05/12 12:11:59;;;;;;;4.83;1.70;;;;;;;17.18;53.73;98824.97;1710684;81;22460;-68
2021/05/12 12:14:33;;;;;;;6.50;1.92;;;;;;;17.16;54.26;98822.82;1743640;80;21005;-67
2021/05/12 12:17:01;;;;;;;2.98;1.65;;;;;;;17.16;54.04;98820.16;1714804;81;21510;-66
2021/05/12 12:19:28;;;;;;;4.00;1.30;;;;;;;17.13;53.61;98813.61;1715792;80;21093;-67
2021/05/12 12:21:55;;;;;;;4.33;1.40;;;;;;;17.10;54.05;98816.39;1720229;81;20976;-67
2021/05/12 12:24:26;;;;;;;2.12;1.17;;;;;;;17.05;54.74;98809.03;1729341;81;22703;-67
2021/05/12 12:26:55;;;;;;;4.70;1.87;;;;;;;17.04;55.02;98803.77;1729078;81;20937;-67
2021/05/12 12:29:28;;;;;;;2.00;1.40;;;;;;;17.06;54.82;98802.78;1729263;81;20889;-66
2021/05/12 12:32:08;;;;;;;4.22;1.40;;;;;;;17.07;55.06;98809.84;1757012;81;21021;-66
2021/05/12 12:34:36;;;;;;;11.80;1.70;;;;;;;17.06;54.87;98800.58;1729283;81;21008;-66
2021/05/12 12:37:21;;;;;;;21.20;2.98;;;;;;;17.06;55.64;98806.77;1729099;81;21005;-66
2021/05/12 12:39:54;;;;;;;14.65;2.60;;;;;;;17.07;55.99;98800.98;1725851;82;20985;-66
2021/05/12 12:42:36;;;;;;;5.45;1.75;;;;;;;17.03;55.47;98800.66;1716180;82;20909;-66
2021/05/12 12:45:28;;;;;;;17.07;1.95;;;;;;;17.00;55.04;98795.85;1716451;82;20874;-66
2021/05/12 12:47:59;;;;;;;5.95;1.67;;;;;;;17.02;55.44;98788.27;1716319;82;20969;-66
2021/05/12 12:50:28;;;;;;;1.45;1.35;;;;;;;17.03;54.57;98796.66;1745965;80;21109;-67
2021/05/12 12:53:04;;;;;;;1.72;1.30;;;;;;;17.04;54.24;98795.77;1716160;82;20977;-67
2021/05/12 12:55:38;;;;;;;1.50;1.40;;;;;;;17.10;54.38;98792.88;1716179;82;20926;-67
2021/05/12 12:58:08;;;;;;;1.30;1.20;;;;;;;17.19;54.89;98797.84;1716230;82;20990;-67
2021/05/12 13:00:39;;;;;;;3.22;1.50;;;;;;;17.21;54.30;98788.00;1716481;82;20973;-67
2021/05/12 13:03:21;;;;;;;2.50;1.30;;;;;;;17.19;53.71;98792.52;1716246;82;23243;-67
2021/05/12 13:05:59;;;;;;;2.60;1.27;;;;;;;17.06;53.84;98780.13;1718741;82;20866;-66
2021/05/12 13:08:30;;;;;;;3.02;1.50;;;;;;;17.00;53.92;98782.53;1716156;82;21005;-67
2021/05/12 13:11:01;;;;;;;1.82;1.30;;;;;;;16.92;53.46;98783.75;1716378;82;21017;-66
2021/05/12 13:16:31;;;;;;;4.50;1.50;;;;;;;16.93;54.65;98769.03;1715891;82;22329;-67
2021/05/12 13:19:07;;;;;;;66.90;5.67;;;;;;;16.93;56.58;98766.37;1716264;82;20953;-67
2021/05/12 13:21:53;;;;;;;12.78;2.72;;;;;;;17.02;56.99;98777.61;1716199;82;20985;-67
2021/05/12 13:24:25;;;;;;;15.32;2.10;;;;;;;17.17;56.94;98768.59;1693214;82;20905;-68
2021/05/12 13:27:00;;;;;;;2.90;1.40;;;;;;;17.17;56.94;98768.59;1716461;82;20925;-68
2021/05/12 13:29:27;;;;;;;3.60;1.60;;;;;;;17.20;56.15;98764.47;1716303;82;22815;-67
2021/05/12 13:31:54;;;;;;;2.37;1.20;;;;;;;17.22;56.03;98765.28;1716213;80;20942;-68
2021/05/12 13:34:22;;;;;;;23.07;2.37;;;;;;;17.29;56.54;98760.11;1745860;80;21408;-68
2021/05/12 13:36:52;;;;;;;17.23;3.27;;;;;;;17.38;55.61;98752.67;1716327;82;20918;-68
2021/05/12 13:39:19;;;;;;;2.75;1.45;;;;;;;17.60;54.89;98753.58;1716267;82;21506;-68
2021/05/12 13:41:47;;;;;;;27.85;2.20;;;;;;;17.60;54.89;98753.58;1727804;81;22555;-68
2021/05/12 13:44:16;;;;;;;1.57;0.90;;;;;;;17.61;54.01;98746.84;1729118;81;21038;-68
2021/05/12 13:46:46;;;;;;;4.12;1.12;;;;;;;17.60;53.45;98739.77;1729253;81;21499;-67
2021/05/12 13:49:13;;;;;;;25.00;2.42;;;;;;;17.61;53.35;98752.18;1729203;81;21246;-68
2021/05/12 13:51:46;;;;;;;20.30;2.87;;;;;;;17.66;53.81;98742.66;1729216;81;20925;-68
2021/05/12 13:54:18;;;;;;;6.42;1.67;;;;;;;17.68;53.47;98741.29;1729148;81;21101;-68
2021/05/12 13:56:54;;;;;;;3.60;1.20;;;;;;;17.65;53.56;98738.25;1729358;81;20936;-68
2021/05/12 14:02:33;;;;;;;2.58;0.75;;;;;;;17.62;53.18;98733.05;1729263;81;20913;-66
2021/05/12 14:04:47;;;;;;;2.22;0.90;;;;;;;17.64;53.65;98731.18;1729025;81;21009;-68
2021/05/12 14:07:14;;;;;;;2.87;1.00;;;;;;;17.58;53.00;98722.09;1729193;81;22675;-67
2021/05/12 14:09:47;;;;;;;1.07;0.90;;;;;;;17.58;53.00;98722.09;1729339;81;20909;-68
2021/05/12 14:12:12;;;;;;;0.80;0.80;;;;;;;17.56;52.57;98720.83;1729052;81;20898;-68
2021/05/12 14:15:04;;;;;;;9.93;1.17;;;;;;;17.58;51.91;98725.64;1729413;81;21058;-68
2021/05/12 14:17:27;;;;;;;1.82;0.70;;;;;;;17.54;52.77;98714.69;1728288;81;20881;-67
2021/05/12 14:19:56;;;;;;;10.95;1.10;;;;;;;17.58;52.76;98718.97;1729253;81;22300;-65
2021/05/12 14:22:23;;;;;;;0.82;0.78;;;;;;;17.58;52.76;98718.97;1729150;81;21210;-66
2021/05/12 14:24:50;;;;;;;106.87;7.22;;;;;;;17.65;51.90;98718.25;1729087;81;20977;-66
2021/05/12 14:27:18;;;;;;;5.08;0.95;;;;;;;17.75;51.36;98712.96;1729125;81;21087;-65
2021/05/12 14:29:47;;;;;;;3.80;0.70;;;;;;;17.92;49.99;98718.91;1729136;81;21008;-65
2021/05/12 14:32:14;;;;;;;28.67;2.45;;;;;;;17.92;49.99;98718.91;1729286;81;22963;-66
2021/05/12 14:34:42;;;;;;;4.90;0.75;;;;;;;17.95;50.90;98712.11;1729002;81;20913;-66
2021/05/12 14:37:09;;;;;;;10.80;1.05;;;;;;;17.96;50.96;98715.65;1729235;81;20929;-67
2021/05/12 14:39:37;;;;;;;40.03;2.98;;;;;;;17.96;51.54;98712.98;1728840;81;20989;-66
2021/05/12 14:42:06;;;;;;;1.62;0.90;;;;;;;17.93;52.20;98706.84;1714735;82;21044;-67
2021/05/12 14:44:36;;;;;;;5.72;0.72;;;;;;;17.94;51.97;98705.91;1698421;83;21983;-67
2021/05/12 14:47:04;;;;;;;2.35;0.60;;;;;;;18.02;52.00;98704.74;1685246;83;20984;-67
2021/05/12 14:49:33;;;;;;;13.48;1.00;;;;;;;18.14;51.26;98697.53;1685434;82;20945;-67
2021/05/12 14:52:11;;;;;;;0.93;0.50;;;;;;;18.27;50.15;98696.05;1685525;83;20933;-67
2021/05/12 14:54:49;;;;;;;18.25;1.57;;;;;;;18.43;48.87;98692.23;1683191;83;20882;-66
2021/05/12 15:07:26;;;;;;;2.60;0.50;;;;;;;18.98;44.73;98679.08;1685979;83;20941;-66
2021/05/12 15:09:54;;;;;;;0.70;0.50;;;;;;;19.01;44.86;98684.27;1685398;83;21159;-66
2021/05/12 15:12:21;;;;;;;10.88;1.10;;;;;;;18.91;44.88;98673.59;1685216;82;20977;-68
2021/05/12 15:14:49;;;;;;;2.10;0.78;;;;;;;18.81;45.58;98670.02;1697441;82;21595;-67
2021/05/12 15:17:17;;;;;;;1.47;0.70;;;;;;;18.82;46.55;98666.87;1743361;81;20985;-67
2021/05/12 15:19:44;;;;;;;2.62;0.70;;;;;;;18.78;46.00;98663.95;1743320;80;20969;-66
2021/05/12 15:22:11;;;;;;;4.12;0.70;;;;;;;18.77;45.66;98660.88;1743273;80;21838;-67
2021/05/12 15:24:38;;;;;;;2.20;0.70;;;;;;;18.74;45.09;98657.88;1743262;82;20997;-67
2021/05/12 15:27:07;;;;;;;3.17;0.60;;;;;;;18.72;45.40;98660.23;1743307;82;20922;-67
2021/05/12 15:29:34;;;;;;;1.95;0.60;;;;;;;18.71;44.92;98662.03;1743446;81;20938;-67
2021/05/12 15:32:01;;;;;;;5.80;1.00;;;;;;;18.70;44.82;98657.63;1689274;82;20894;-67
2021/05/12 15:34:28;;;;;;;2.27;0.68;;;;;;;18.69;44.94;98659.91;1743282;81;21025;-67
2021/05/12 15:36:56;;;;;;;1.10;0.60;;;;;;;18.63;45.42;98658.86;1743242;80;20997;-67
2021/05/12 15:39:23;;;;;;;4.37;0.95;;;;;;;18.59;45.57;98657.70;1743276;81;20906;-67
2021/05/12 15:41:50;;;;;;;1.50;0.75;;;;;;;18.55;46.02;98657.84;1737347;81;20930;-67
2021/05/12 15:44:17;;;;;;;18.80;1.50;;;;;;;18.52;46.11;98655.31;1714408;82;20922;-67
2021/05/12 15:46:44;;;;;;;4.05;0.90;;;;;;;18.46;45.98;98657.41;1705824;82;21091;-67
2021/05/12 15:49:11;;;;;;;2.72;0.90;;;;;;;18.44;46.69;98650.77;1739210;81;20933;-67
2021/05/12 15:51:39;;;;;;;2.75;0.93;;;;;;;18.48;47.25;98649.72;1714362;82;20935;-68
2021/05/12 15:54:07;;;;;;;0.80;0.80;;;;;;;18.43;47.40;98646.83;1714210;82;20946;-67
2021/05/12 15:56:34;;;;;;;1.07;0.80;;;;;;;18.42;47.46;98649.97;1714481;82;20875;-67
2021/05/12 15:59:01;;;;;;;4.12;0.80;;;;;;;18.47;47.70;98643.98;1714409;82;23114;-67
2021/05/12 16:01:28;;;;;;;1.00;0.90;;;;;;;18.52;47.95;98642.43;1714325;82;21013;-67